sensor_id;sensor_type;location;lat;lon;timestamp;pressure;altitude;pressure_sealevel;temperature;humidity
7376;BME280;3728;42.266;24.944;2022-08-06T00:02:26;99214.53;;;22.17;83.92
7376;BME280;3728;42.266;24.944;2022-08-06T00:04:59;99211.88;;;21.96;86.14
7376;BME280;3728;42.266;24.944;2022-08-06T00:07:27;99215.69;;;22.02;86.46
7376;BME280;3728;42.266;24.944;2022-08-06T00:10:14;99217.53;;;22.36;84.21
7376;BME280;3728;42.266;24.944;2022-08-06T00:12:42;99209.91;;;22.38;83.49
7376;BME280;3728;42.266;24.944;2022-08-06T00:15:12;99206.91;;;22.12;85.51
7376;BME280;3728;42.266;24.944;2022-08-06T00:17:44;99213.03;;;21.91;87.75
7376;BME280;3728;42.266;24.944;2022-08-06T00:20:14;99212.25;;;22.05;86.82
7376;BME280;3728;42.266;24.944;2022-08-06T00:22:58;99213.38;;;22.21;86.24
7376;BME280;3728;42.266;24.944;2022-08-06T00:25:28;99217.94;;;22.31;84.77
7376;BME280;3728;42.266;24.944;2022-08-06T00:28:10;99216.44;;;22.13;85.61
7376;BME280;3728;42.266;24.944;2022-08-06T00:30:38;99223.69;;;22.05;86.61
7376;BME280;3728;42.266;24.944;2022-08-06T00:33:10;99224.84;;;22.01;87.16
7376;BME280;3728;42.266;24.944;2022-08-06T00:35:41;99231.69;;;21.98;88.41
7376;BME280;3728;42.266;24.944;2022-08-06T00:38:11;99232.84;;;22.01;87.64
7376;BME280;3728;42.266;24.944;2022-08-06T00:40:43;99245.75;;;22.44;82.90
7376;BME280;3728;42.266;24.944;2022-08-06T00:43:15;99242.00;;;21.86;84.28
7376;BME280;3728;42.266;24.944;2022-08-06T00:45:46;99233.56;;;21.55;86.35
7376;BME280;3728;42.266;24.944;2022-08-06T00:48:14;99238.50;;;21.60;86.70
7376;BME280;3728;42.266;24.944;2022-08-06T00:51:02;99244.97;;;21.56;86.73
7376;BME280;3728;42.266;24.944;2022-08-06T00:53:37;99245.34;;;21.44;87.20
7376;BME280;3728;42.266;24.944;2022-08-06T00:56:09;99248.72;;;21.20;88.37
7376;BME280;3728;42.266;24.944;2022-08-06T00:58:37;99249.06;;;21.11;88.76
7376;BME280;3728;42.266;24.944;2022-08-06T01:01:10;99243.75;;;21.11;89.14
7376;BME280;3728;42.266;24.944;2022-08-06T01:03:45;99249.81;;;21.08;89.50
7376;BME280;3728;42.266;24.944;2022-08-06T01:06:21;99252.47;;;21.08;89.96
7376;BME280;3728;42.266;24.944;2022-08-06T01:09:09;99243.69;;;21.00;90.86
7376;BME280;3728;42.266;24.944;2022-08-06T01:11:37;99247.47;;;20.99;91.27
7376;BME280;3728;42.266;24.944;2022-08-06T01:14:05;99242.97;;;21.10;90.35
7376;BME280;3728;42.266;24.944;2022-08-06T01:16:43;99239.19;;;21.11;90.63
7376;BME280;3728;42.266;24.944;2022-08-06T01:22:38;99243.78;;;21.22;90.58
7376;BME280;3728;42.266;24.944;2022-08-06T01:28:33;99238.88;;;21.38;90.87
7376;BME280;3728;42.266;24.944;2022-08-06T01:31:21;99243.44;;;21.37;91.18
7376;BME280;3728;42.266;24.944;2022-08-06T01:34:17;99239.25;;;21.47;91.06
7376;BME280;3728;42.266;24.944;2022-08-06T01:37:08;99237.75;;;21.49;90.67
7376;BME280;3728;42.266;24.944;2022-08-06T01:39:39;99229.00;;;21.49;91.05
7376;BME280;3728;42.266;24.944;2022-08-06T01:42:29;99228.22;;;21.48;91.02
7376;BME280;3728;42.266;24.944;2022-08-06T01:45:03;99225.94;;;21.54;90.30
7376;BME280;3728;42.266;24.944;2022-08-06T01:47:32;99225.22;;;21.64;89.50
7376;BME280;3728;42.266;24.944;2022-08-06T01:50:25;99223.28;;;21.68;89.17
7376;BME280;3728;42.266;24.944;2022-08-06T01:52:57;99226.72;;;21.68;88.68
7376;BME280;3728;42.266;24.944;2022-08-06T01:55:32;99227.88;;;21.57;89.25
7376;BME280;3728;42.266;24.944;2022-08-06T01:58:26;99243.06;;;21.53;89.65
7376;BME280;3728;42.266;24.944;2022-08-06T02:00:58;99232.78;;;21.44;90.29
7376;BME280;3728;42.266;24.944;2022-08-06T02:06:22;99230.13;;;21.58;89.32
7376;BME280;3728;42.266;24.944;2022-08-06T02:08:58;99234.34;;;21.59;89.47
7376;BME280;3728;42.266;24.944;2022-08-06T02:12:01;99235.06;;;21.60;89.47
7376;BME280;3728;42.266;24.944;2022-08-06T02:14:39;99232.41;;;21.74;88.49
7376;BME280;3728;42.266;24.944;2022-08-06T02:17:11;99239.34;;;21.86;87.56
7376;BME280;3728;42.266;24.944;2022-08-06T02:19:47;99228.22;;;21.69;88.02
7376;BME280;3728;42.266;24.944;2022-08-06T02:22:39;99226.72;;;21.58;88.53
7376;BME280;3728;42.266;24.944;2022-08-06T02:25:10;99227.50;;;21.55;89.11
7376;BME280;3728;42.266;24.944;2022-08-06T02:27:54;99225.97;;;21.57;88.73
7376;BME280;3728;42.266;24.944;2022-08-06T02:33:16;99224.41;;;21.60;89.18
7376;BME280;3728;42.266;24.944;2022-08-06T02:36:13;99217.56;;;21.55;89.67
7376;BME280;3728;42.266;24.944;2022-08-06T02:39:06;99226.72;;;21.47;90.75
7376;BME280;3728;42.266;24.944;2022-08-06T02:42:00;99225.53;;;21.31;91.39
7376;BME280;3728;42.266;24.944;2022-08-06T02:47:17;99228.22;;;21.31;91.34
7376;BME280;3728;42.266;24.944;2022-08-06T02:49:47;99225.16;;;21.29;91.70
7376;BME280;3728;42.266;24.944;2022-08-06T02:52:40;99229.38;;;21.47;90.56
7376;BME280;3728;42.266;24.944;2022-08-06T02:55:26;99222.13;;;21.34;91.28
7376;BME280;3728;42.266;24.944;2022-08-06T02:58:26;99223.63;;;21.35;91.33
7376;BME280;3728;42.266;24.944;2022-08-06T03:01:08;99218.66;;;21.16;92.87
7376;BME280;3728;42.266;24.944;2022-08-06T03:03:38;99218.91;;;20.89;94.82
7376;BME280;3728;42.266;24.944;2022-08-06T03:06:27;99208.63;;;20.81;95.37
7376;BME280;3728;42.266;24.944;2022-08-06T03:08:58;99213.63;;;20.93;95.14
7376;BME280;3728;42.266;24.944;2022-08-06T03:11:29;99216.00;;;21.19;92.50
7376;BME280;3728;42.266;24.944;2022-08-06T03:14:03;99223.25;;;21.40;90.57
7376;BME280;3728;42.266;24.944;2022-08-06T03:16:53;99223.63;;;21.17;92.07
7376;BME280;3728;42.266;24.944;2022-08-06T03:19:25;99225.09;;;21.07;92.53
7376;BME280;3728;42.266;24.944;2022-08-06T03:22:14;99227.69;;;20.93;94.42
7376;BME280;3728;42.266;24.944;2022-08-06T03:25:01;99230.06;;;21.05;94.09
7376;BME280;3728;42.266;24.944;2022-08-06T03:27:30;99230.34;;;20.93;94.57
7376;BME280;3728;42.266;24.944;2022-08-06T03:30:19;99226.16;;;20.89;95.05
7376;BME280;3728;42.266;24.944;2022-08-06T03:33:08;99216.31;;;21.00;94.70
7376;BME280;3728;42.266;24.944;2022-08-06T03:35:58;99220.00;;;20.78;95.75
7376;BME280;3728;42.266;24.944;2022-08-06T03:38:28;99229.78;;;20.53;98.02
7376;BME280;3728;42.266;24.944;2022-08-06T03:40:59;99233.56;;;20.48;98.60
7376;BME280;3728;42.266;24.944;2022-08-06T03:43:28;99239.22;;;20.39;99.66
7376;BME280;3728;42.266;24.944;2022-08-06T03:46:26;99245.47;;;20.75;98.50
7376;BME280;3728;42.266;24.944;2022-08-06T03:48:56;99246.31;;;20.90;95.96
7376;BME280;3728;42.266;24.944;2022-08-06T03:51:27;99237.19;;;20.91;93.43
7376;BME280;3728;42.266;24.944;2022-08-06T03:54:18;99240.16;;;20.75;95.08
7376;BME280;3728;42.266;24.944;2022-08-06T03:57:00;99235.59;;;20.72;95.34
7376;BME280;3728;42.266;24.944;2022-08-06T03:59:37;99229.84;;;20.63;95.69
7376;BME280;3728;42.266;24.944;2022-08-06T04:02:23;99232.50;;;20.60;94.95
7376;BME280;3728;42.266;24.944;2022-08-06T04:05:14;99240.81;;;20.51;95.89
7376;BME280;3728;42.266;24.944;2022-08-06T04:07:48;99240.81;;;20.55;96.17
7376;BME280;3728;42.266;24.944;2022-08-06T04:10:24;99235.06;;;20.45;97.40
7376;BME280;3728;42.266;24.944;2022-08-06T04:13:02;99240.75;;;20.40;97.76
7376;BME280;3728;42.266;24.944;2022-08-06T04:15:51;99245.34;;;20.47;97.52
7376;BME280;3728;42.266;24.944;2022-08-06T04:18:25;99241.97;;;20.54;96.70
7376;BME280;3728;42.266;24.944;2022-08-06T04:21:00;99243.47;;;20.55;97.01
7376;BME280;3728;42.266;24.944;2022-08-06T04:23:49;99240.84;;;20.62;95.05
7376;BME280;3728;42.266;24.944;2022-08-06T04:26:23;99247.00;;;20.76;93.83
7376;BME280;3728;42.266;24.944;2022-08-06T04:28:55;99254.00;;;21.09;91.55
7376;BME280;3728;42.266;24.944;2022-08-06T04:31:26;99251.41;;;21.27;90.04
7376;BME280;3728;42.266;24.944;2022-08-06T04:34:20;99249.56;;;21.83;87.55
7376;BME280;3728;42.266;24.944;2022-08-06T04:36:54;99258.72;;;22.07;84.69
7376;BME280;3728;42.266;24.944;2022-08-06T04:39:23;99256.84;;;22.11;83.24
7376;BME280;3728;42.266;24.944;2022-08-06T04:42:04;99257.19;;;22.24;82.00
7376;BME280;3728;42.266;24.944;2022-08-06T04:44:36;99258.72;;;22.25;82.39
7376;BME280;3728;42.266;24.944;2022-08-06T04:47:11;99262.56;;;21.92;82.63
7376;BME280;3728;42.266;24.944;2022-08-06T04:49:45;99262.91;;;22.29;82.79
7376;BME280;3728;42.266;24.944;2022-08-06T04:52:28;99264.78;;;22.61;81.31
7376;BME280;3728;42.266;24.944;2022-08-06T04:55:08;99265.53;;;22.58;80.52
7376;BME280;3728;42.266;24.944;2022-08-06T04:57:51;99260.94;;;22.69;79.56
7376;BME280;3728;42.266;24.944;2022-08-06T05:00:33;99264.66;;;22.92;78.97
7376;BME280;3728;42.266;24.944;2022-08-06T05:03:21;99267.28;;;23.10;78.38
7376;BME280;3728;42.266;24.944;2022-08-06T05:06:15;99273.97;;;23.46;78.06
7376;BME280;3728;42.266;24.944;2022-08-06T05:08:48;99278.00;;;23.72;76.49
7376;BME280;3728;42.266;24.944;2022-08-06T05:11:48;99265.69;;;23.81;75.80
7376;BME280;3728;42.266;24.944;2022-08-06T05:14:42;99259.72;;;23.67;75.29
7376;BME280;3728;42.266;24.944;2022-08-06T05:17:15;99261.41;;;23.43;77.02
7376;BME280;3728;42.266;24.944;2022-08-06T05:19:53;99254.47;;;23.49;76.55
7376;BME280;3728;42.266;24.944;2022-08-06T05:22:23;99263.44;;;23.80;76.41
7376;BME280;3728;42.266;24.944;2022-08-06T05:25:11;99268.09;;;24.20;74.35
7376;BME280;3728;42.266;24.944;2022-08-06T05:27:53;99271.34;;;24.42;73.64
7376;BME280;3728;42.266;24.944;2022-08-06T05:30:52;99277.25;;;24.19;73.52
7376;BME280;3728;42.266;24.944;2022-08-06T05:33:36;99268.44;;;24.22;72.67
7376;BME280;3728;42.266;24.944;2022-08-06T05:36:10;99269.16;;;24.30;73.80
7376;BME280;3728;42.266;24.944;2022-08-06T05:38:45;99275.56;;;24.36;74.62
7376;BME280;3728;42.266;24.944;2022-08-06T05:41:26;99280.78;;;24.50;73.51
7376;BME280;3728;42.266;24.944;2022-08-06T05:43:59;99279.25;;;24.53;72.67
7376;BME280;3728;42.266;24.944;2022-08-06T05:46:34;99270.97;;;24.74;71.53
7376;BME280;3728;42.266;24.944;2022-08-06T05:52:08;99277.13;;;25.35;69.23
7376;BME280;3728;42.266;24.944;2022-08-06T05:54:46;99273.22;;;25.39;69.79
7376;BME280;3728;42.266;24.944;2022-08-06T05:57:42;99272.56;;;25.62;68.65
7376;BME280;3728;42.266;24.944;2022-08-06T06:00:13;99267.44;;;25.14;70.18
7376;BME280;3728;42.266;24.944;2022-08-06T06:03:03;99265.44;;;24.91;70.70
7376;BME280;3728;42.266;24.944;2022-08-06T06:05:34;99266.75;;;25.10;71.00
7376;BME280;3728;42.266;24.944;2022-08-06T06:08:24;99265.28;;;25.62;69.11
7376;BME280;3728;42.266;24.944;2022-08-06T06:11:07;99270.66;;;25.62;69.79
7376;BME280;3728;42.266;24.944;2022-08-06T06:13:39;99269.00;;;26.18;66.77
7376;BME280;3728;42.266;24.944;2022-08-06T06:16:50;99271.72;;;26.15;66.60
7376;BME280;3728;42.266;24.944;2022-08-06T06:19:34;99280.38;;;26.26;67.53
7376;BME280;3728;42.266;24.944;2022-08-06T06:22:35;99278.13;;;26.44;66.49
7376;BME280;3728;42.266;24.944;2022-08-06T06:25:20;99274.06;;;26.56;66.03
7376;BME280;3728;42.266;24.944;2022-08-06T06:28:22;99264.53;;;26.94;66.29
7376;BME280;3728;42.266;24.944;2022-08-06T06:33:38;99266.50;;;27.45;63.05
7376;BME280;3728;42.266;24.944;2022-08-06T06:36:30;99265.91;;;27.38;63.55
7376;BME280;3728;42.266;24.944;2022-08-06T06:39:07;99269.22;;;27.26;64.33
7376;BME280;3728;42.266;24.944;2022-08-06T06:41:58;99263.72;;;27.49;63.86
7376;BME280;3728;42.266;24.944;2022-08-06T06:44:50;99266.13;;;27.27;63.18
7376;BME280;3728;42.266;24.944;2022-08-06T06:50:52;99254.75;;;27.55;62.50
7376;BME280;3728;42.266;24.944;2022-08-06T06:53:28;99249.34;;;27.39;63.20
7376;BME280;3728;42.266;24.944;2022-08-06T06:56:21;99252.06;;;27.71;63.18
7376;BME280;3728;42.266;24.944;2022-08-06T06:59:07;99253.47;;;27.92;62.51
7376;BME280;3728;42.266;24.944;2022-08-06T07:01:45;99253.88;;;28.23;63.15
7376;BME280;3728;42.266;24.944;2022-08-06T07:04:21;99253.56;;;28.05;61.78
7376;BME280;3728;42.266;24.944;2022-08-06T07:06:57;99252.59;;;28.27;59.92
7376;BME280;3728;42.266;24.944;2022-08-06T07:09:40;99252.19;;;27.97;61.12
7376;BME280;3728;42.266;24.944;2022-08-06T07:12:27;99248.25;;;28.01;61.77
7376;BME280;3728;42.266;24.944;2022-08-06T07:15:03;99249.91;;;28.27;62.11
7376;BME280;3728;42.266;24.944;2022-08-06T07:17:39;99254.28;;;28.79;58.30
7376;BME280;3728;42.266;24.944;2022-08-06T07:20:30;99244.59;;;28.69;58.62
7376;BME280;3728;42.266;24.944;2022-08-06T07:23:02;99247.72;;;28.51;60.52
7376;BME280;3728;42.266;24.944;2022-08-06T07:25:52;99240.41;;;28.52;60.02
7376;BME280;3728;42.266;24.944;2022-08-06T07:28:29;99244.78;;;28.74;59.37
7376;BME280;3728;42.266;24.944;2022-08-06T07:31:01;99243.19;;;28.48;59.89
7376;BME280;3728;42.266;24.944;2022-08-06T07:33:38;99241.88;;;28.69;58.09
7376;BME280;3728;42.266;24.944;2022-08-06T07:36:30;99237.09;;;29.01;59.31
7376;BME280;3728;42.266;24.944;2022-08-06T07:39:13;99233.13;;;29.31;57.31
7376;BME280;3728;42.266;24.944;2022-08-06T07:41:42;99236.00;;;29.11;58.84
7376;BME280;3728;42.266;24.944;2022-08-06T07:44:35;99236.19;;;29.04;56.93
7376;BME280;3728;42.266;24.944;2022-08-06T07:47:27;99231.25;;;29.16;55.30
7376;BME280;3728;42.266;24.944;2022-08-06T07:50:13;99227.47;;;29.63;56.05
7376;BME280;3728;42.266;24.944;2022-08-06T07:52:42;99230.81;;;29.80;53.11
7376;BME280;3728;42.266;24.944;2022-08-06T07:55:12;99226.06;;;29.84;54.10
7376;BME280;3728;42.266;24.944;2022-08-06T07:57:42;99221.81;;;30.17;54.84
7376;BME280;3728;42.266;24.944;2022-08-06T08:00:27;99222.31;;;30.25;52.41
7376;BME280;3728;42.266;24.944;2022-08-06T08:02:55;99221.47;;;30.28;52.78
7376;BME280;3728;42.266;24.944;2022-08-06T08:06:02;99221.81;;;30.17;52.59
7376;BME280;3728;42.266;24.944;2022-08-06T08:09:02;99214.97;;;30.25;51.38
7376;BME280;3728;42.266;24.944;2022-08-06T08:11:37;99216.66;;;30.10;52.17
7376;BME280;3728;42.266;24.944;2022-08-06T08:14:28;99209.78;;;30.53;50.58
7376;BME280;3728;42.266;24.944;2022-08-06T08:16:58;99215.72;;;30.69;50.14
7376;BME280;3728;42.266;24.944;2022-08-06T08:19:31;99205.69;;;30.70;50.42
7376;BME280;3728;42.266;24.944;2022-08-06T08:22:02;99207.34;;;30.98;48.74
7376;BME280;3728;42.266;24.944;2022-08-06T08:24:38;99209.53;;;31.79;47.78
7376;BME280;3728;42.266;24.944;2022-08-06T08:27:07;99210.03;;;32.05;44.60
7376;BME280;3728;42.266;24.944;2022-08-06T08:29:49;99199.72;;;32.63;44.08
7376;BME280;3728;42.266;24.944;2022-08-06T08:32:23;99207.28;;;32.41;45.23
7376;BME280;3728;42.266;24.944;2022-08-06T08:34:52;99202.06;;;32.88;42.25
7376;BME280;3728;42.266;24.944;2022-08-06T08:37:23;99200.00;;;33.72;40.14
7376;BME280;3728;42.266;24.944;2022-08-06T08:39:50;99201.13;;;34.04;40.32
7376;BME280;3728;42.266;24.944;2022-08-06T08:42:48;99199.53;;;35.00;38.15
7376;BME280;3728;42.266;24.944;2022-08-06T08:45:20;99200.59;;;35.37;38.10
7376;BME280;3728;42.266;24.944;2022-08-06T08:48:01;99196.47;;;35.27;37.82
7376;BME280;3728;42.266;24.944;2022-08-06T08:50:32;99195.97;;;35.09;38.28
7376;BME280;3728;42.266;24.944;2022-08-06T08:53:10;99196.97;;;34.76;37.36
7376;BME280;3728;42.266;24.944;2022-08-06T08:55:41;99187.94;;;35.75;35.56
7376;BME280;3728;42.266;24.944;2022-08-06T08:58:31;99187.19;;;36.20;34.84
7376;BME280;3728;42.266;24.944;2022-08-06T09:01:25;99187.75;;;36.04;35.97
7376;BME280;3728;42.266;24.944;2022-08-06T09:04:12;99193.00;;;36.90;34.59
7376;BME280;3728;42.266;24.944;2022-08-06T09:06:43;99179.47;;;36.18;35.16
7376;BME280;3728;42.266;24.944;2022-08-06T09:09:17;99179.19;;;36.11;35.59
7376;BME280;3728;42.266;24.944;2022-08-06T09:11:57;99171.00;;;36.11;35.84
7376;BME280;3728;42.266;24.944;2022-08-06T09:14:35;99182.31;;;36.04;34.89
7376;BME280;3728;42.266;24.944;2022-08-06T09:17:07;99168.69;;;36.55;36.80
7376;BME280;3728;42.266;24.944;2022-08-06T09:19:38;99173.16;;;37.96;32.57
7376;BME280;3728;42.266;24.944;2022-08-06T09:22:08;99163.94;;;37.88;31.65
7376;BME280;3728;42.266;24.944;2022-08-06T09:24:38;99166.59;;;36.76;33.16
7376;BME280;3728;42.266;24.944;2022-08-06T09:27:15;99168.56;;;37.54;33.83
7376;BME280;3728;42.266;24.944;2022-08-06T09:30:05;99162.22;;;38.07;32.96
7376;BME280;3728;42.266;24.944;2022-08-06T09:32:54;99161.94;;;37.83;32.27
7376;BME280;3728;42.266;24.944;2022-08-06T09:35:57;99163.47;;;37.95;32.92
7376;BME280;3728;42.266;24.944;2022-08-06T09:38:26;99162.53;;;38.31;31.85
7376;BME280;3728;42.266;24.944;2022-08-06T09:41:05;99157.06;;;38.65;30.20
7376;BME280;3728;42.266;24.944;2022-08-06T09:43:42;99150.72;;;37.76;30.36
7376;BME280;3728;42.266;24.944;2022-08-06T09:46:41;99137.28;;;36.71;32.42
7376;BME280;3728;42.266;24.944;2022-08-06T09:49:15;99138.59;;;37.29;32.37
7376;BME280;3728;42.266;24.944;2022-08-06T09:52:16;99142.41;;;36.94;31.78
7376;BME280;3728;42.266;24.944;2022-08-06T09:54:48;99147.63;;;37.40;32.53
7376;BME280;3728;42.266;24.944;2022-08-06T09:57:24;99145.09;;;37.37;32.11
7376;BME280;3728;42.266;24.944;2022-08-06T10:00:02;99144.19;;;36.66;31.76
7376;BME280;3728;42.266;24.944;2022-08-06T10:02:34;99140.50;;;36.69;33.05
7376;BME280;3728;42.266;24.944;2022-08-06T10:05:10;99139.22;;;36.33;33.63
7376;BME280;3728;42.266;24.944;2022-08-06T10:07:47;99141.97;;;36.65;32.53
7376;BME280;3728;42.266;24.944;2022-08-06T10:10:38;99133.78;;;36.70;32.38
7376;BME280;3728;42.266;24.944;2022-08-06T10:13:19;99131.84;;;36.76;31.82
7376;BME280;3728;42.266;24.944;2022-08-06T10:15:50;99139.28;;;36.13;33.03
7376;BME280;3728;42.266;24.944;2022-08-06T10:18:40;99123.22;;;35.69;33.23
7376;BME280;3728;42.266;24.944;2022-08-06T10:21:27;99117.00;;;35.29;33.74
7376;BME280;3728;42.266;24.944;2022-08-06T10:24:08;99116.75;;;35.67;34.05
7376;BME280;3728;42.266;24.944;2022-08-06T10:26:41;99122.56;;;36.57;32.47
7376;BME280;3728;42.266;24.944;2022-08-06T10:29:11;99118.16;;;37.72;31.28
7376;BME280;3728;42.266;24.944;2022-08-06T10:31:43;99110.28;;;38.24;30.94
7376;BME280;3728;42.266;24.944;2022-08-06T10:34:15;99116.16;;;39.00;30.51
7376;BME280;3728;42.266;24.944;2022-08-06T10:36:45;99110.19;;;38.96;29.77
7376;BME280;3728;42.266;24.944;2022-08-06T10:39:30;99106.53;;;38.16;30.82
7376;BME280;3728;42.266;24.944;2022-08-06T10:42:21;99098.09;;;37.92;31.65
7376;BME280;3728;42.266;24.944;2022-08-06T10:44:51;99101.06;;;38.49;30.74
7376;BME280;3728;42.266;24.944;2022-08-06T10:47:20;99093.63;;;38.33;30.00
7376;BME280;3728;42.266;24.944;2022-08-06T10:50:12;99090.34;;;38.23;30.69
7376;BME280;3728;42.266;24.944;2022-08-06T10:53:00;99083.16;;;38.04;31.23
7376;BME280;3728;42.266;24.944;2022-08-06T10:55:30;99080.16;;;38.24;30.05
7376;BME280;3728;42.266;24.944;2022-08-06T10:58:08;99075.16;;;38.67;29.78
7376;BME280;3728;42.266;24.944;2022-08-06T11:00:40;99070.16;;;39.45;29.05
7376;BME280;3728;42.266;24.944;2022-08-06T11:15:18;99072.09;;;39.91;27.57
7376;BME280;3728;42.266;24.944;2022-08-06T11:26:02;99065.81;;;39.03;29.33
7376;BME280;3728;42.266;24.944;2022-08-06T11:31:00;99066.97;;;38.45;29.49
7376;BME280;3728;42.266;24.944;2022-08-06T11:36:04;99058.75;;;39.30;28.07
7376;BME280;3728;42.266;24.944;2022-08-06T11:41:31;99048.75;;;38.75;29.63
7376;BME280;3728;42.266;24.944;2022-08-06T11:44:33;99061.06;;;42.05;26.72
7376;BME280;3728;42.266;24.944;2022-08-06T11:47:14;99070.88;;;45.63;21.69
7376;BME280;3728;42.266;24.944;2022-08-06T11:50:22;99061.28;;;45.86;22.63
7376;BME280;3728;42.266;24.944;2022-08-06T11:52:54;99053.81;;;44.49;23.37
7376;BME280;3728;42.266;24.944;2022-08-06T11:55:24;99052.03;;;42.88;25.85
7376;BME280;3728;42.266;24.944;2022-08-06T12:01:00;99047.66;;;41.51;26.70
7376;BME280;3728;42.266;24.944;2022-08-06T12:03:37;99039.03;;;41.41;26.78
7376;BME280;3728;42.266;24.944;2022-08-06T12:06:22;99036.38;;;41.36;27.62
7376;BME280;3728;42.266;24.944;2022-08-06T12:09:20;99041.50;;;41.45;27.06
7376;BME280;3728;42.266;24.944;2022-08-06T12:14:53;99028.84;;;40.56;28.11
7376;BME280;3728;42.266;24.944;2022-08-06T12:17:24;99033.06;;;41.56;26.77
7376;BME280;3728;42.266;24.944;2022-08-06T12:20:13;99035.00;;;45.34;21.32
7376;BME280;3728;42.266;24.944;2022-08-06T12:23:14;99030.25;;;45.65;22.00
7376;BME280;3728;42.266;24.944;2022-08-06T12:25:45;99020.53;;;43.44;23.12
7376;BME280;3728;42.266;24.944;2022-08-06T12:28:16;99009.84;;;41.38;24.11
7376;BME280;3728;42.266;24.944;2022-08-06T12:30:52;99007.94;;;40.53;26.12
7376;BME280;3728;42.266;24.944;2022-08-06T12:33:23;98991.00;;;38.84;27.22
7376;BME280;3728;42.266;24.944;2022-08-06T12:35:52;98991.84;;;38.40;28.63
7376;BME280;3728;42.266;24.944;2022-08-06T12:38:30;98987.41;;;37.48;29.69
7376;BME280;3728;42.266;24.944;2022-08-06T12:40:59;98983.13;;;36.61;32.12
7376;BME280;3728;42.266;24.944;2022-08-06T12:43:42;98977.03;;;36.82;30.49
7376;BME280;3728;42.266;24.944;2022-08-06T12:46:25;98977.47;;;36.64;31.93
7376;BME280;3728;42.266;24.944;2022-08-06T12:48:57;98971.31;;;36.80;30.75
7376;BME280;3728;42.266;24.944;2022-08-06T12:51:30;98980.69;;;37.72;30.66
7376;BME280;3728;42.266;24.944;2022-08-06T12:54:02;98981.22;;;40.00;26.49
7376;BME280;3728;42.266;24.944;2022-08-06T12:56:39;98975.59;;;40.41;26.08
7376;BME280;3728;42.266;24.944;2022-08-06T12:59:10;98976.47;;;39.76;28.19
7376;BME280;3728;42.266;24.944;2022-08-06T13:01:50;98965.53;;;38.89;27.13
7376;BME280;3728;42.266;24.944;2022-08-06T13:04:43;98966.06;;;37.80;29.87
7376;BME280;3728;42.266;24.944;2022-08-06T13:07:33;98968.63;;;38.63;29.95
7376;BME280;3728;42.266;24.944;2022-08-06T13:10:12;98963.13;;;39.26;28.54
7376;BME280;3728;42.266;24.944;2022-08-06T13:13:06;98967.88;;;39.55;29.19
7376;BME280;3728;42.266;24.944;2022-08-06T13:16:01;98961.56;;;43.13;24.08
7376;BME280;3728;42.266;24.944;2022-08-06T13:18:32;98973.38;;;43.76;23.43
7376;BME280;3728;42.266;24.944;2022-08-06T13:21:23;98963.69;;;43.82;21.53
7376;BME280;3728;42.266;24.944;2022-08-06T13:23:59;98960.50;;;43.16;22.47
7376;BME280;3728;42.266;24.944;2022-08-06T13:26:30;98965.16;;;45.72;20.88
7376;BME280;3728;42.266;24.944;2022-08-06T13:29:13;98966.53;;;47.87;19.39
7376;BME280;3728;42.266;24.944;2022-08-06T13:32:08;98967.53;;;50.72;17.29
7376;BME280;3728;42.266;24.944;2022-08-06T13:35:04;98967.09;;;53.20;14.69
7376;BME280;3728;42.266;24.944;2022-08-06T13:37:49;98966.16;;;52.60;14.84
7376;BME280;3728;42.266;24.944;2022-08-06T13:40:45;98961.16;;;52.04;15.27
7376;BME280;3728;42.266;24.944;2022-08-06T13:46:14;98939.78;;;47.00;18.67
7376;BME280;3728;42.266;24.944;2022-08-06T13:48:49;98944.78;;;45.16;20.71
7376;BME280;3728;42.266;24.944;2022-08-06T13:51:20;98926.25;;;44.30;20.85
7376;BME280;3728;42.266;24.944;2022-08-06T13:53:55;98921.94;;;43.65;20.75
7376;BME280;3728;42.266;24.944;2022-08-06T13:56:26;98923.09;;;44.26;20.63
7376;BME280;3728;42.266;24.944;2022-08-06T13:58:57;98932.38;;;43.59;19.90
7376;BME280;3728;42.266;24.944;2022-08-06T14:01:26;98931.69;;;42.70;21.27
7376;BME280;3728;42.266;24.944;2022-08-06T14:04:12;98930.03;;;40.93;22.45
7376;BME280;3728;42.266;24.944;2022-08-06T14:06:42;98925.50;;;38.86;25.30
7376;BME280;3728;42.266;24.944;2022-08-06T14:09:19;98916.09;;;37.80;26.84
7376;BME280;3728;42.266;24.944;2022-08-06T14:11:58;98924.00;;;37.11;27.03
7376;BME280;3728;42.266;24.944;2022-08-06T14:14:29;98923.31;;;36.52;28.72
7376;BME280;3728;42.266;24.944;2022-08-06T14:16:58;98919.44;;;36.21;28.84
7376;BME280;3728;42.266;24.944;2022-08-06T14:19:28;98916.78;;;35.59;29.95
7376;BME280;3728;42.266;24.944;2022-08-06T14:22:16;98920.72;;;35.58;31.10
7376;BME280;3728;42.266;24.944;2022-08-06T14:24:51;98919.22;;;35.57;30.47
7376;BME280;3728;42.266;24.944;2022-08-06T14:27:22;98919.88;;;35.78;30.87
7376;BME280;3728;42.266;24.944;2022-08-06T14:29:52;98920.53;;;35.98;31.90
7376;BME280;3728;42.266;24.944;2022-08-06T14:32:39;98921.31;;;36.47;29.87
7376;BME280;3728;42.266;24.944;2022-08-06T14:35:11;98924.63;;;36.19;30.84
7376;BME280;3728;42.266;24.944;2022-08-06T14:37:42;98919.38;;;36.16;29.48
7376;BME280;3728;42.266;24.944;2022-08-06T14:40:23;98926.72;;;36.94;29.02
7376;BME280;3728;42.266;24.944;2022-08-06T14:43:29;98929.72;;;39.57;25.54
7376;BME280;3728;42.266;24.944;2022-08-06T14:46:26;98923.75;;;40.13;25.99
7376;BME280;3728;42.266;24.944;2022-08-06T14:49:00;98923.06;;;41.56;24.11
7376;BME280;3728;42.266;24.944;2022-08-06T14:51:38;98931.16;;;42.72;23.70
7376;BME280;3728;42.266;24.944;2022-08-06T14:54:27;98930.84;;;40.88;25.39
7376;BME280;3728;42.266;24.944;2022-08-06T14:57:00;98928.53;;;40.74;25.77
7376;BME280;3728;42.266;24.944;2022-08-06T14:59:40;98920.63;;;39.09;27.71
7376;BME280;3728;42.266;24.944;2022-08-06T15:02:18;98924.25;;;38.13;29.25
7376;BME280;3728;42.266;24.944;2022-08-06T15:04:45;98914.28;;;36.93;30.42
7376;BME280;3728;42.266;24.944;2022-08-06T15:07:19;98917.34;;;36.48;31.21
7376;BME280;3728;42.266;24.944;2022-08-06T15:09:53;98919.84;;;36.03;31.53
7376;BME280;3728;42.266;24.944;2022-08-06T15:12:34;98916.44;;;36.19;31.08
7376;BME280;3728;42.266;24.944;2022-08-06T15:15:09;98912.88;;;35.65;31.28
7376;BME280;3728;42.266;24.944;2022-08-06T15:17:40;98917.75;;;35.61;32.17